createdAt,value
2023-03-29T00:02:30.380Z,97073.81
2023-03-29T00:04:58.268Z,97012.13
2023-03-29T00:07:26.104Z,97067.56
2023-03-29T00:09:53.081Z,97074.53
2023-03-29T00:12:19.805Z,97075.94
2023-03-29T00:14:46.524Z,97014.22
2023-03-29T00:17:13.470Z,96995.31
2023-03-29T00:19:40.319Z,97070.25
2023-03-29T00:22:06.986Z,96997.56
2023-03-29T00:24:33.706Z,97080.59
2023-03-29T00:27:01.018Z,97051.81
2023-03-29T00:29:27.627Z,96997.91
2023-03-29T00:31:55.976Z,97044.22
2023-03-29T00:34:30.727Z,97063.53
2023-03-29T00:36:58.224Z,97013.81
2023-03-29T00:39:26.423Z,97064.53
2023-03-29T00:41:53.180Z,97092.00
2023-03-29T00:44:56.966Z,97073.31
2023-03-29T00:47:37.473Z,97077.34
2023-03-29T00:50:29.738Z,97080.44
2023-03-29T00:53:26.414Z,97087.34
2023-03-29T00:55:53.256Z,97067.69
2023-03-29T00:58:28.495Z,97021.38
2023-03-29T01:01:02.297Z,97071.75
2023-03-29T01:03:36.326Z,97069.50
2023-03-29T01:06:07.734Z,97072.56
2023-03-29T01:08:47.799Z,97065.94
2023-03-29T01:11:22.253Z,97054.84
2023-03-29T01:14:11.940Z,97065.66
2023-03-29T01:16:38.646Z,97083.22
2023-03-29T01:19:14.055Z,97069.03
2023-03-29T01:21:51.537Z,97060.66
2023-03-29T01:24:50.564Z,97018.31
2023-03-29T01:27:45.151Z,97068.53
2023-03-29T01:30:22.612Z,97084.47
2023-03-29T01:33:34.129Z,97079.94
2023-03-29T01:36:46.612Z,97093.81
2023-03-29T01:39:13.209Z,97100.22
2023-03-29T01:41:52.438Z,97095.09
2023-03-29T01:44:27.572Z,97098.94
2023-03-29T01:47:11.374Z,97119.06
2023-03-29T01:49:54.755Z,97124.34
2023-03-29T01:52:34.507Z,97138.09
2023-03-29T01:55:13.221Z,97147.22
2023-03-29T01:57:43.697Z,97140.94
2023-03-29T02:00:19.109Z,97157.19
2023-03-29T02:02:47.851Z,97141.38
2023-03-29T02:05:16.654Z,97171.50
2023-03-29T02:07:46.175Z,97159.72
2023-03-29T02:10:14.518Z,97075.13
2023-03-29T02:12:41.476Z,97173.56
2023-03-29T02:15:13.817Z,97166.16
2023-03-29T02:17:40.793Z,97188.53
2023-03-29T02:20:22.571Z,97182.25
2023-03-29T02:22:55.015Z,97181.16
2023-03-29T02:25:22.583Z,97178.41
2023-03-29T02:27:49.562Z,97179.00
2023-03-29T02:30:18.855Z,97160.59
2023-03-29T02:33:05.928Z,97164.34
2023-03-29T02:35:36.983Z,97200.91
2023-03-29T02:38:07.920Z,97208.47
2023-03-29T02:40:37.637Z,97204.63
2023-03-29T02:43:07.733Z,97200.72
2023-03-29T02:45:36.604Z,97198.72
2023-03-29T02:48:07.501Z,97070.63
2023-03-29T02:50:39.546Z,97115.66
2023-03-29T02:53:13.411Z,97178.06
2023-03-29T02:55:40.006Z,97176.56
2023-03-29T02:58:09.326Z,97178.31
2023-03-29T03:00:46.146Z,97183.78
2023-03-29T03:03:15.521Z,97171.72
2023-03-29T03:05:42.834Z,97107.72
2023-03-29T03:08:09.494Z,97080.97
2023-03-29T03:10:37.276Z,97175.38
2023-03-29T03:13:04.115Z,97108.66
2023-03-29T03:15:31.284Z,97193.75
2023-03-29T03:17:57.915Z,97103.72
2023-03-29T03:20:24.524Z,97116.72
2023-03-29T03:22:51.154Z,97192.75
2023-03-29T03:25:21.166Z,97204.31
2023-03-29T03:27:49.177Z,97208.53
2023-03-29T03:30:16.742Z,97197.41
2023-03-29T03:32:44.905Z,97211.06
2023-03-29T03:35:11.837Z,97217.94
2023-03-29T03:37:39.311Z,97151.28
2023-03-29T03:40:12.068Z,97226.59
2023-03-29T03:42:41.817Z,97169.13
2023-03-29T03:45:10.674Z,97238.63
2023-03-29T03:47:37.981Z,97249.56
2023-03-29T03:50:06.317Z,97225.38
2023-03-29T03:52:33.038Z,97275.97
2023-03-29T03:54:59.731Z,97169.78
2023-03-29T03:57:26.528Z,97250.44
2023-03-29T03:59:53.162Z,97128.69
2023-03-29T04:02:20.665Z,97250.59
2023-03-29T04:04:47.692Z,97262.63
2023-03-29T04:07:14.517Z,97260.41
2023-03-29T04:09:41.105Z,97282.38
2023-03-29T04:12:07.831Z,97105.50
2023-03-29T04:14:34.543Z,97256.06
2023-03-29T04:17:01.465Z,97280.44
2023-03-29T04:19:28.247Z,97249.16
2023-03-29T04:21:54.819Z,97235.63
2023-03-29T04:24:23.852Z,97277.28
2023-03-29T04:26:50.466Z,97252.72
2023-03-29T04:29:17.086Z,97249.81
2023-03-29T04:31:43.765Z,97253.06
2023-03-29T04:34:10.704Z,97181.81
2023-03-29T04:36:37.357Z,97240.09
2023-03-29T04:39:04.358Z,97236.59
2023-03-29T04:41:32.677Z,97262.47
2023-03-29T04:43:59.283Z,97229.56
2023-03-29T04:46:26.654Z,97263.22
2023-03-29T04:48:54.048Z,97187.91
2023-03-29T04:51:22.291Z,97236.56
2023-03-29T04:53:50.267Z,97239.44
2023-03-29T04:56:17.373Z,97266.66
2023-03-29T04:58:44.540Z,97249.16
2023-03-29T05:01:11.575Z,97262.81
2023-03-29T05:03:38.486Z,97270.25
2023-03-29T05:06:12.009Z,97108.22
2023-03-29T05:08:40.043Z,97245.66
2023-03-29T05:11:08.691Z,97274.03
2023-03-29T05:13:35.490Z,97277.47
2023-03-29T05:16:02.629Z,97261.03
2023-03-29T05:18:29.986Z,97304.88
2023-03-29T05:20:57.960Z,97272.38
2023-03-29T05:23:25.202Z,97231.16
2023-03-29T05:25:53.400Z,97281.25
2023-03-29T05:28:20.568Z,97306.88
2023-03-29T05:30:47.918Z,97384.38
2023-03-29T05:33:14.609Z,97052.38
2023-03-29T05:35:41.301Z,96945.88
2023-03-29T05:38:07.948Z,97278.53
2023-03-29T05:40:35.920Z,97221.31
2023-03-29T05:43:02.967Z,97229.94
2023-03-29T05:45:30.138Z,97321.94
2023-03-29T05:47:57.725Z,97309.69
2023-03-29T05:50:24.845Z,97309.72
2023-03-29T05:52:51.685Z,97303.88
2023-03-29T05:55:18.514Z,97317.75
2023-03-29T05:57:45.095Z,97291.47
2023-03-29T06:00:20.139Z,97322.88
2023-03-29T06:02:47.181Z,97326.16
2023-03-29T06:05:14.030Z,97304.72
2023-03-29T06:07:40.761Z,97188.91
2023-03-29T06:10:09.695Z,96882.81
2023-03-29T06:12:36.536Z,97319.72
2023-03-29T06:15:05.028Z,97150.25
2023-03-29T06:17:33.689Z,97226.50
2023-03-29T06:20:01.666Z,97312.28
2023-03-29T06:22:28.274Z,97339.41
2023-03-29T06:24:54.903Z,97362.47
2023-03-29T06:27:21.488Z,97141.13
2023-03-29T06:29:48.599Z,97370.66
2023-03-29T06:32:15.280Z,97377.44
2023-03-29T06:34:41.848Z,97235.41
2023-03-29T06:37:08.604Z,97330.53
2023-03-29T06:39:35.177Z,97336.97
2023-03-29T06:42:10.046Z,97359.41
2023-03-29T06:44:43.559Z,97370.69
2023-03-29T06:47:10.109Z,97390.88
2023-03-29T06:49:36.694Z,97378.91
2023-03-29T06:52:03.340Z,97379.06
2023-03-29T06:54:29.931Z,97356.31
2023-03-29T06:56:57.491Z,97379.72
2023-03-29T06:59:24.055Z,97386.03
2023-03-29T07:01:52.623Z,97380.03
2023-03-29T07:04:19.965Z,97393.25
2023-03-29T07:06:51.196Z,97398.38
2023-03-29T07:09:19.609Z,97376.28
2023-03-29T07:11:46.750Z,97387.00
2023-03-29T07:14:13.318Z,97407.16
2023-03-29T07:16:39.948Z,97409.47
2023-03-29T07:19:08.896Z,97302.09
2023-03-29T07:21:37.395Z,97416.94
2023-03-29T07:24:06.715Z,97404.84
2023-03-29T07:26:33.704Z,97420.31
2023-03-29T07:29:01.053Z,97310.97
2023-03-29T07:31:29.595Z,97311.41
2023-03-29T07:33:56.340Z,97069.34
2023-03-29T07:36:23.058Z,97393.22
2023-03-29T07:38:50.016Z,97375.97
2023-03-29T07:41:16.848Z,97173.19
2023-03-29T07:43:43.491Z,97419.47
2023-03-29T07:46:11.464Z,97418.88
2023-03-29T07:48:38.252Z,97415.00
2023-03-29T07:51:06.183Z,97425.03
2023-03-29T07:53:33.287Z,97380.84
2023-03-29T07:56:00.305Z,97421.28
2023-03-29T07:58:27.460Z,97491.00
2023-03-29T08:00:54.088Z,97424.81
2023-03-29T08:03:20.888Z,97406.50
2023-03-29T08:05:47.532Z,97403.31
2023-03-29T08:08:14.293Z,97326.50
2023-03-29T08:10:42.599Z,97395.16
2023-03-29T08:13:10.217Z,97264.81
2023-03-29T08:15:39.196Z,97422.44
2023-03-29T08:18:07.847Z,97424.06
2023-03-29T08:20:34.710Z,97412.63
2023-03-29T08:23:01.307Z,97380.56
2023-03-29T08:25:27.879Z,97330.63
2023-03-29T08:27:54.513Z,97409.63
2023-03-29T08:30:21.507Z,97360.97
2023-03-29T08:32:50.505Z,97407.44
2023-03-29T08:35:18.313Z,97406.38
2023-03-29T08:37:45.033Z,97424.13
2023-03-29T08:40:19.163Z,97400.00
2023-03-29T08:43:08.915Z,97384.44
2023-03-29T08:45:50.938Z,97403.00
2023-03-29T08:48:28.602Z,97417.63
2023-03-29T08:51:18.802Z,97407.72
2023-03-29T08:54:20.714Z,97395.66
2023-03-29T08:56:52.419Z,97382.16
2023-03-29T08:59:24.213Z,97390.56
2023-03-29T09:01:55.556Z,97368.91
2023-03-29T09:04:29.530Z,97370.22
2023-03-29T09:06:56.324Z,97406.34
2023-03-29T09:09:32.662Z,97409.16
2023-03-29T09:12:08.667Z,97409.94
2023-03-29T09:15:06.747Z,97390.94
2023-03-29T09:18:06.277Z,97413.06
2023-03-29T09:20:38.399Z,97388.09
2023-03-29T09:23:42.373Z,97415.75
2023-03-29T09:26:40.697Z,97419.84
2023-03-29T09:29:16.641Z,97406.81
2023-03-29T09:31:44.813Z,97406.56
2023-03-29T09:34:22.081Z,97387.94
2023-03-29T09:36:58.724Z,97397.63
2023-03-29T09:39:28.478Z,97382.31
2023-03-29T09:42:00.981Z,97403.66
2023-03-29T09:44:33.110Z,97392.53
2023-03-29T09:47:08.608Z,97392.44
2023-03-29T09:49:40.859Z,97404.41
2023-03-29T09:52:13.075Z,97416.59
2023-03-29T09:54:40.071Z,97385.56
2023-03-29T09:57:09.251Z,97408.28
2023-03-29T09:59:36.926Z,97368.66
2023-03-29T10:02:09.430Z,97437.34
2023-03-29T10:04:36.867Z,97277.63
2023-03-29T10:07:04.768Z,97217.00
2023-03-29T10:09:32.859Z,97385.13
2023-03-29T10:12:50.271Z,97389.34
2023-03-29T10:15:29.269Z,97374.38
2023-03-29T10:18:10.892Z,97398.56
2023-03-29T10:20:39.978Z,97383.00
2023-03-29T10:23:09.054Z,97383.84
2023-03-29T10:25:42.827Z,97395.53
2023-03-29T10:28:17.626Z,97368.09
2023-03-29T10:30:47.578Z,97359.19
2023-03-29T10:33:21.114Z,97361.19
2023-03-29T10:35:48.844Z,97374.63
2023-03-29T10:38:22.206Z,97369.72
2023-03-29T10:40:49.527Z,97378.34
2023-03-29T10:43:22.159Z,97376.22
2023-03-29T10:45:51.866Z,97373.81
2023-03-29T10:48:19.521Z,97379.56
2023-03-29T10:50:53.040Z,97381.88
2023-03-29T10:53:26.339Z,97366.97
2023-03-29T10:56:10.928Z,97369.44
2023-03-29T10:58:41.058Z,97361.44
2023-03-29T11:01:17.923Z,97137.69
2023-03-29T11:04:16.660Z,97351.06
2023-03-29T11:07:01.488Z,97336.72
2023-03-29T11:09:57.792Z,97330.78
2023-03-29T11:12:30.816Z,97286.56
2023-03-29T11:15:28.389Z,97328.59
2023-03-29T11:18:33.890Z,97330.81
2023-03-29T11:21:32.063Z,97316.41
2023-03-29T11:24:17.195Z,97330.97
2023-03-29T11:27:05.393Z,96933.22
2023-03-29T11:29:52.797Z,96885.94
2023-03-29T11:32:47.361Z,97318.72
2023-03-29T11:35:34.371Z,97309.31
2023-03-29T11:38:23.108Z,97324.97
2023-03-29T11:41:08.406Z,97327.66
2023-03-29T11:43:42.954Z,97315.53
2023-03-29T11:46:20.501Z,97322.22
2023-03-29T11:48:56.957Z,97324.22
2023-03-29T11:51:28.518Z,97274.03
2023-03-29T11:54:03.387Z,97224.25
2023-03-29T11:56:42.526Z,97178.47
2023-03-29T11:59:35.215Z,97321.19
2023-03-29T12:02:08.203Z,97282.31
2023-03-29T12:04:41.942Z,97297.75
2023-03-29T12:07:48.630Z,97339.19
2023-03-29T12:10:21.291Z,97333.16
2023-03-29T12:12:50.654Z,97344.88
2023-03-29T12:15:21.550Z,97324.63
2023-03-29T12:18:06.965Z,97319.44
2023-03-29T12:20:38.677Z,97258.50
2023-03-29T12:23:07.319Z,97301.97
2023-03-29T12:26:04.848Z,97312.09
2023-03-29T12:28:56.672Z,97305.94
2023-03-29T12:31:36.677Z,97316.69
2023-03-29T12:34:34.841Z,97296.19
2023-03-29T12:37:16.676Z,97313.13
2023-03-29T12:39:43.982Z,97278.47
2023-03-29T12:42:19.348Z,97340.56
2023-03-29T12:44:59.025Z,97220.66
2023-03-29T12:47:43.189Z,97297.13
2023-03-29T12:50:28.481Z,97241.41
2023-03-29T12:53:21.094Z,97299.06
2023-03-29T12:55:53.751Z,97300.34
2023-03-29T12:58:54.188Z,97296.03
2023-03-29T13:01:37.047Z,97302.91
2023-03-29T13:04:17.746Z,97296.91
2023-03-29T13:06:47.418Z,97301.97
2023-03-29T13:09:31.227Z,97286.94
2023-03-29T13:12:06.134Z,97292.19
2023-03-29T13:14:36.668Z,97298.19
2023-03-29T13:17:26.442Z,97294.94
2023-03-29T13:20:20.178Z,97295.00
2023-03-29T13:23:20.710Z,97290.50
2023-03-29T13:26:12.227Z,97294.78
2023-03-29T13:28:58.561Z,97288.09
2023-03-29T13:31:44.217Z,97236.38
2023-03-29T13:34:55.190Z,97281.84
2023-03-29T13:37:41.933Z,97299.25
2023-03-29T13:40:57.842Z,97311.38
2023-03-29T13:43:45.779Z,97283.13
2023-03-29T13:46:41.514Z,97297.13
2023-03-29T13:49:23.324Z,97286.72
2023-03-29T13:51:53.066Z,97301.91
2023-03-29T13:55:04.332Z,97295.22
2023-03-29T13:57:42.098Z,97301.00
2023-03-29T14:00:17.930Z,96981.25
2023-03-29T14:02:50.851Z,97312.88
2023-03-29T14:05:21.852Z,97260.59
2023-03-29T14:07:52.615Z,97305.00
2023-03-29T14:10:25.832Z,97308.41
2023-03-29T14:12:53.112Z,97244.25
2023-03-29T14:15:23.937Z,97279.78
2023-03-29T14:17:55.332Z,97299.41
2023-03-29T14:20:23.265Z,97302.75
2023-03-29T14:22:50.147Z,97297.69
2023-03-29T14:25:19.454Z,97309.94
2023-03-29T14:27:46.162Z,97301.16
2023-03-29T14:30:21.970Z,97282.34
2023-03-29T14:32:50.422Z,97312.31
2023-03-29T14:35:17.609Z,97306.50
2023-03-29T14:37:44.967Z,97328.66
2023-03-29T14:40:21.920Z,97314.59
2023-03-29T14:42:49.119Z,97274.06
2023-03-29T14:45:18.951Z,97331.66
2023-03-29T14:47:47.398Z,97275.16
2023-03-29T14:50:24.486Z,97330.56
2023-03-29T14:52:52.366Z,97328.06
2023-03-29T14:55:23.717Z,97334.28
2023-03-29T14:57:54.228Z,97320.75
2023-03-29T15:00:30.397Z,97343.34
2023-03-29T15:03:01.848Z,97301.56
2023-03-29T15:05:33.775Z,97335.31
2023-03-29T15:08:01.880Z,97328.03
2023-03-29T15:10:33.020Z,97330.97
2023-03-29T15:13:03.501Z,97292.47
2023-03-29T15:15:32.970Z,97330.38
2023-03-29T15:18:00.842Z,97272.75
2023-03-29T15:20:32.637Z,97358.91
2023-03-29T15:23:04.593Z,97301.22
2023-03-29T15:25:37.629Z,97375.66
2023-03-29T15:28:05.218Z,97257.44
2023-03-29T15:30:34.966Z,97339.78
2023-03-29T15:33:23.083Z,97342.91
2023-03-29T15:35:51.893Z,97313.16
2023-03-29T15:38:30.130Z,97358.06
2023-03-29T15:41:01.361Z,97304.69
2023-03-29T15:43:28.182Z,97363.94
2023-03-29T15:45:54.756Z,97354.28
2023-03-29T15:48:24.303Z,97366.69
2023-03-29T15:50:51.749Z,97360.50
2023-03-29T15:53:20.144Z,97360.03
2023-03-29T15:56:00.260Z,97357.28
2023-03-29T15:58:30.887Z,97310.66
2023-03-29T16:01:13.341Z,97358.19
2023-03-29T16:03:40.070Z,97343.72
2023-03-29T16:06:10.897Z,97364.88
2023-03-29T16:08:37.518Z,96950.13
2023-03-29T16:11:05.166Z,97319.69
2023-03-29T16:13:31.701Z,97381.75
2023-03-29T16:15:58.640Z,97377.72
2023-03-29T16:18:25.392Z,97380.25
2023-03-29T16:20:51.988Z,97392.94
2023-03-29T16:23:18.641Z,97377.84
2023-03-29T16:25:45.347Z,97374.28
2023-03-29T16:28:12.253Z,97385.56
2023-03-29T16:30:38.917Z,97401.66
2023-03-29T16:33:08.466Z,97387.63
2023-03-29T16:35:38.523Z,97383.00
2023-03-29T16:38:05.575Z,97384.84
2023-03-29T16:40:33.307Z,97405.06
2023-03-29T16:43:00.301Z,97372.88
2023-03-29T16:45:27.298Z,97394.66
2023-03-29T16:47:54.545Z,97402.97
2023-03-29T16:50:22.084Z,97333.41
2023-03-29T16:52:51.388Z,97398.84
2023-03-29T16:55:21.202Z,97406.63
2023-03-29T16:57:48.589Z,97412.16
2023-03-29T17:00:17.073Z,97419.94
2023-03-29T17:02:44.112Z,97405.88
2023-03-29T17:05:11.838Z,97399.25
2023-03-29T17:07:39.654Z,97431.41
2023-03-29T17:10:08.248Z,97368.94
2023-03-29T17:12:35.511Z,97418.56
2023-03-29T17:15:02.931Z,97395.19
2023-03-29T17:17:29.626Z,97432.84
2023-03-29T17:19:56.659Z,97449.81
2023-03-29T17:22:24.206Z,97456.28
2023-03-29T17:24:50.850Z,97415.38
2023-03-29T17:27:18.220Z,97457.75
2023-03-29T17:29:44.828Z,97465.56
2023-03-29T17:32:11.368Z,97463.47
2023-03-29T17:34:38.734Z,97378.94
2023-03-29T17:37:05.389Z,97450.66
2023-03-29T17:39:32.179Z,97387.69
2023-03-29T17:41:58.813Z,97473.88
2023-03-29T17:44:25.536Z,97473.28
2023-03-29T17:46:52.233Z,97485.31
2023-03-29T17:49:18.884Z,97442.72
2023-03-29T17:51:46.281Z,97386.22
2023-03-29T17:54:12.944Z,97487.44
2023-03-29T17:56:39.728Z,97491.56
2023-03-29T17:59:06.383Z,97410.38
2023-03-29T18:01:33.299Z,97513.59
2023-03-29T18:03:59.943Z,97521.84
2023-03-29T18:06:27.045Z,97502.09
2023-03-29T18:08:53.736Z,97505.47
2023-03-29T18:11:22.803Z,97520.84
2023-03-29T18:13:53.538Z,97466.75
2023-03-29T18:16:21.771Z,97530.84
2023-03-29T18:18:48.763Z,97475.13
2023-03-29T18:21:16.766Z,97487.03
2023-03-29T18:23:47.833Z,97515.38
2023-03-29T18:26:16.127Z,97501.53
2023-03-29T18:28:47.061Z,97540.50
2023-03-29T18:31:14.303Z,97523.19
2023-03-29T18:33:41.140Z,97525.56
2023-03-29T18:36:12.935Z,97524.03
2023-03-29T18:38:40.756Z,97477.06
2023-03-29T18:41:08.556Z,97528.53
2023-03-29T18:43:37.055Z,97560.63
2023-03-29T18:46:05.246Z,97416.66
2023-03-29T18:48:33.706Z,97534.19
2023-03-29T18:51:00.387Z,97524.78
2023-03-29T18:53:27.644Z,97530.28
2023-03-29T18:55:55.872Z,97402.50
2023-03-29T18:58:24.091Z,97531.09
2023-03-29T19:00:51.636Z,97537.28
2023-03-29T19:03:18.559Z,97527.53
2023-03-29T19:05:45.276Z,97468.53
2023-03-29T19:08:11.860Z,97528.69
2023-03-29T19:10:39.257Z,97495.47
2023-03-29T19:13:06.367Z,97517.69
2023-03-29T19:15:34.744Z,97449.47
2023-03-29T19:18:01.718Z,97505.72
2023-03-29T19:20:29.390Z,97533.78
2023-03-29T19:22:56.111Z,97518.59
2023-03-29T19:25:23.013Z,97464.88
2023-03-29T19:27:50.376Z,97521.56
2023-03-29T19:30:18.363Z,97533.53
2023-03-29T19:32:45.028Z,97507.88
2023-03-29T19:35:12.917Z,97493.31
2023-03-29T19:37:40.012Z,97523.63
2023-03-29T19:40:08.458Z,97527.72
2023-03-29T19:42:37.982Z,97535.31
2023-03-29T19:45:07.070Z,97520.16
2023-03-29T19:47:34.387Z,97530.00
2023-03-29T19:50:01.379Z,97525.84
2023-03-29T19:52:29.086Z,97523.56
2023-03-29T19:54:56.502Z,97536.56
2023-03-29T19:57:23.946Z,97532.69
2023-03-29T19:59:50.950Z,97457.06
2023-03-29T20:02:17.607Z,97491.69
2023-03-29T20:04:44.318Z,97524.00
2023-03-29T20:07:11.104Z,97509.16
2023-03-29T20:09:37.770Z,97509.91
2023-03-29T20:12:04.767Z,97477.38
2023-03-29T20:14:31.605Z,97527.69
2023-03-29T20:16:58.611Z,97485.25
2023-03-29T20:19:25.528Z,97525.28
2023-03-29T20:21:57.583Z,97501.50
2023-03-29T20:24:25.240Z,97521.09
2023-03-29T20:26:52.579Z,97525.00
2023-03-29T20:29:19.175Z,97537.97
2023-03-29T20:31:46.278Z,97524.84
2023-03-29T20:34:13.217Z,97540.69
2023-03-29T20:36:40.498Z,97528.34
2023-03-29T20:39:08.256Z,97404.38
2023-03-29T20:41:38.319Z,97480.06
2023-03-29T20:44:05.696Z,97497.63
2023-03-29T20:46:35.280Z,97511.78
2023-03-29T20:49:07.431Z,97528.22
2023-03-29T20:51:34.081Z,97526.03
2023-03-29T20:54:04.440Z,97425.31
2023-03-29T20:56:39.021Z,97522.69
2023-03-29T20:59:10.580Z,97524.59
2023-03-29T21:01:40.626Z,97517.66
2023-03-29T21:04:11.053Z,97525.72
2023-03-29T21:06:39.569Z,97478.00
2023-03-29T21:09:06.223Z,97517.44
2023-03-29T21:11:33.418Z,97513.72
2023-03-29T21:13:59.983Z,97516.63
2023-03-29T21:16:29.098Z,97514.44
2023-03-29T21:18:55.910Z,97517.38
2023-03-29T21:21:25.592Z,97514.28
2023-03-29T21:23:52.302Z,97524.63
2023-03-29T21:26:18.880Z,97525.28
2023-03-29T21:28:45.432Z,97514.59
2023-03-29T21:31:12.127Z,97512.81
2023-03-29T21:33:38.821Z,97518.84
2023-03-29T21:36:05.752Z,97407.38
2023-03-29T21:38:32.403Z,97512.22
2023-03-29T21:41:00.608Z,97520.31
2023-03-29T21:43:27.455Z,97524.66
2023-03-29T21:45:54.078Z,97502.72
2023-03-29T21:48:20.662Z,97516.94
2023-03-29T21:50:51.048Z,97502.28
2023-03-29T21:53:18.314Z,97500.34
2023-03-29T21:55:44.964Z,97516.47
2023-03-29T21:58:11.523Z,97523.28
2023-03-29T22:00:38.184Z,97528.13
2023-03-29T22:03:04.819Z,97522.63
2023-03-29T22:05:31.765Z,97525.22
2023-03-29T22:07:58.668Z,97515.69
2023-03-29T22:10:25.471Z,97518.78
2023-03-29T22:12:52.567Z,97455.50
2023-03-29T22:15:20.711Z,97486.16
2023-03-29T22:17:47.872Z,97513.44
2023-03-29T22:20:15.040Z,97522.81
2023-03-29T22:22:47.061Z,97522.97
2023-03-29T22:25:14.272Z,97514.41
2023-03-29T22:27:44.085Z,97525.56
2023-03-29T22:30:12.187Z,97517.81
2023-03-29T22:32:38.872Z,97512.94
2023-03-29T22:35:06.413Z,97495.81
2023-03-29T22:37:33.187Z,97503.41
2023-03-29T22:39:59.748Z,97440.66
2023-03-29T22:42:26.302Z,97448.88
2023-03-29T22:44:52.872Z,97428.72
2023-03-29T22:47:19.480Z,97511.81
2023-03-29T22:49:46.024Z,97511.66
2023-03-29T22:52:12.615Z,97443.91
2023-03-29T22:54:39.278Z,97476.81
2023-03-29T22:57:05.907Z,97510.41
2023-03-29T22:59:32.508Z,97513.75
2023-03-29T23:01:59.139Z,97512.97
2023-03-29T23:04:25.802Z,97517.16
2023-03-29T23:06:53.151Z,97512.81
2023-03-29T23:09:19.828Z,97487.16
2023-03-29T23:11:46.451Z,97364.22
2023-03-29T23:14:13.001Z,97507.97
2023-03-29T23:16:39.654Z,97076.09
2023-03-29T23:19:06.720Z,97507.31
2023-03-29T23:21:33.552Z,97477.75
2023-03-29T23:24:00.649Z,97513.28
2023-03-29T23:26:27.799Z,97515.06
2023-03-29T23:28:54.475Z,97516.84
2023-03-29T23:31:21.244Z,97510.41
2023-03-29T23:33:47.896Z,97429.72
2023-03-29T23:36:17.001Z,97504.91
2023-03-29T23:38:45.729Z,97510.72
2023-03-29T23:41:13.338Z,97515.56
2023-03-29T23:43:42.298Z,97508.47
2023-03-29T23:46:15.552Z,97506.72
2023-03-29T23:48:46.193Z,97506.53
2023-03-29T23:51:13.356Z,97456.88
2023-03-29T23:53:39.996Z,97392.63
2023-03-29T23:56:07.845Z,97512.06
2023-03-29T23:58:37.331Z,97501.38
